Time;durP1;ratioP1;P1;durP2;ratioP2;P2;SDS_P1;SDS_P2;PMS_P1;PMS_P2;Temp;Humidity;BMP_temperature;BMP_pressure;BME280_temperature;BME280_humidity;BME280_pressure;Samples;Min_cycle;Max_cycle;Signal;HPM_P1;HPM_P2
2021/09/26 18:20:05;;;;;;;16.38;8.95;;;;;;;;;;4888154;29;20068;-60
2021/09/26 18:22:32;;;;;;;21.88;8.98;;;;;;;;;;4895260;29;20032;-64
2021/09/26 18:24:58;;;;;;;23.02;9.38;;;;;;;;;;4896039;29;20029;-63
2021/09/26 18:27:27;;;;;;;15.55;8.10;;;;;;;;;;4893221;29;20118;-62
2021/09/26 18:29:54;;;;;;;17.17;8.68;;;;;;;;;;4887040;29;20067;-63
2021/09/26 18:32:20;;;;;;;20.05;9.45;;;;;;;;;;4884928;29;20380;-62
2021/09/26 18:34:46;;;;;;;22.15;9.07;;;;;;;;;;4892364;29;20037;-62
2021/09/26 18:37:12;;;;;;;20.63;9.98;;;;;;;;;;4884751;29;20438;-61
2021/09/26 18:39:38;;;;;;;17.08;10.07;;;;;;;;;;4889153;29;20092;-63
2021/09/26 18:42:05;;;;;;;20.98;10.00;;;;;;;;;;4894781;29;20043;-61
2021/09/26 18:44:36;;;;;;;15.50;8.52;;;;;;;;;;4895145;29;20033;-62
2021/09/26 18:47:03;;;;;;;26.50;9.10;;;;;;;;;;4898268;29;20029;-62
2021/09/26 18:49:29;;;;;;;26.40;8.70;;;;;;;;;;4871815;29;20037;-63
2021/09/26 18:51:55;;;;;;;22.27;9.43;;;;;;;;;;4890940;29;20036;-62
2021/09/26 18:54:21;;;;;;;27.48;9.25;;;;;;;;;;4898511;29;20165;-63
2021/09/26 18:56:47;;;;;;;14.70;8.00;;;;;;;;;;4898820;29;20033;-63
2021/09/26 18:59:14;;;;;;;24.90;9.02;;;;;;;;;;4898778;29;20092;-63
2021/09/26 19:01:40;;;;;;;16.08;8.95;;;;;;;;;;4898623;29;20032;-62
2021/09/26 19:04:06;;;;;;;16.65;8.32;;;;;;;;;;4898736;29;20029;-62
2021/09/26 19:06:33;;;;;;;20.33;8.45;;;;;;;;;;4898872;29;20112;-62
2021/09/26 19:09:00;;;;;;;16.13;7.82;;;;;;;;;;4898718;29;20108;-63
2021/09/26 19:11:27;;;;;;;15.60;7.90;;;;;;;;;;4881435;29;20160;-63
2021/09/26 19:13:54;;;;;;;23.33;8.73;;;;;;;;;;4872833;29;20441;-63
2021/09/26 19:16:21;;;;;;;24.45;8.77;;;;;;;;;;4893788;29;20036;-63
2021/09/26 19:18:47;;;;;;;13.82;7.35;;;;;;;;;;4896232;29;20059;-64
2021/09/26 19:21:14;;;;;;;22.73;10.32;;;;;;;;;;4897376;29;20033;-61
2021/09/26 19:23:44;;;;;;;34.40;10.65;;;;;;;;;;4863561;29;20073;-61
2021/09/26 19:26:11;;;;;;;25.35;8.75;;;;;;;;;;4879401;29;20096;-62
2021/09/26 19:28:40;;;;;;;26.52;9.02;;;;;;;;;;4895286;29;20028;-63
2021/09/26 19:31:30;;;;;;;20.63;8.88;;;;;;;;;;4865679;29;20077;-60
2021/09/26 19:33:59;;;;;;;23.70;11.15;;;;;;;;;;4867981;29;20481;-61
2021/09/26 19:36:26;;;;;;;14.77;9.05;;;;;;;;;;4884041;29;20092;-61
2021/09/26 19:38:52;;;;;;;16.60;8.07;;;;;;;;;;4880461;29;20060;-63
2021/09/26 19:41:19;;;;;;;17.98;8.52;;;;;;;;;;4879197;29;20164;-61
2021/09/26 19:43:47;;;;;;;19.48;9.43;;;;;;;;;;4896604;29;20116;-62
2021/09/26 19:46:15;;;;;;;18.50;9.95;;;;;;;;;;4879801;29;20374;-62
2021/09/26 19:48:44;;;;;;;17.00;9.52;;;;;;;;;;4896742;29;20492;-60
2021/09/26 19:51:11;;;;;;;15.85;9.93;;;;;;;;;;4896761;29;20032;-61
2021/09/26 19:53:38;;;;;;;23.38;11.50;;;;;;;;;;4880086;29;20037;-61
2021/09/26 19:56:04;;;;;;;19.48;10.80;;;;;;;;;;4878961;29;20496;-63
2021/09/26 19:58:31;;;;;;;18.65;11.15;;;;;;;;;;4897524;29;20421;-63
2021/09/26 20:00:58;;;;;;;20.63;10.07;;;;;;;;;;4897444;29;20500;-63
2021/09/26 20:03:24;;;;;;;19.70;10.10;;;;;;;;;;4883408;29;20060;-64
2021/09/26 20:05:50;;;;;;;32.80;11.77;;;;;;;;;;4896419;29;20111;-62
2021/09/26 20:08:16;;;;;;;19.20;10.20;;;;;;;;;;4879544;29;20047;-61
2021/09/26 20:10:43;;;;;;;19.67;10.43;;;;;;;;;;4895588;29;20476;-62
2021/09/26 20:13:10;;;;;;;17.75;10.85;;;;;;;;;;4896546;29;20037;-62
2021/09/26 20:15:39;;;;;;;18.13;10.40;;;;;;;;;;4880057;29;20476;-62
2021/09/26 20:18:06;;;;;;;23.80;10.60;;;;;;;;;;4878739;29;20061;-62
2021/09/26 20:20:33;;;;;;;21.38;9.60;;;;;;;;;;4896325;29;20044;-62
2021/09/26 20:22:59;;;;;;;17.33;7.80;;;;;;;;;;4879008;29;20400;-62
2021/09/26 20:25:26;;;;;;;15.40;8.00;;;;;;;;;;4878507;29;20123;-61
2021/09/26 20:27:52;;;;;;;16.90;7.47;;;;;;;;;;4897217;29;20036;-61
2021/09/26 20:30:19;;;;;;;14.60;8.35;;;;;;;;;;4896577;29;20108;-62
2021/09/26 20:32:46;;;;;;;12.45;7.15;;;;;;;;;;4896367;29;20372;-62
2021/09/26 20:35:12;;;;;;;12.57;6.88;;;;;;;;;;4879326;29;20032;-61
2021/09/26 20:37:40;;;;;;;15.48;6.93;;;;;;;;;;4896250;29;20055;-62
2021/09/26 20:40:06;;;;;;;10.43;6.05;;;;;;;;;;4897005;29;20047;-65
2021/09/26 20:42:32;;;;;;;10.13;6.28;;;;;;;;;;4879991;29;20032;-62
2021/09/26 20:44:59;;;;;;;10.63;6.57;;;;;;;;;;4897402;29;20036;-61
2021/09/26 20:47:25;;;;;;;14.75;8.00;;;;;;;;;;4896782;29;20044;-61
2021/09/26 20:49:51;;;;;;;21.38;8.77;;;;;;;;;;4879909;29;20071;-62
2021/09/26 20:52:17;;;;;;;11.90;6.18;;;;;;;;;;4880172;29;20037;-61
2021/09/26 20:54:43;;;;;;;10.82;6.00;;;;;;;;;;4897038;29;20036;-61
2021/09/26 20:57:10;;;;;;;13.23;6.13;;;;;;;;;;4877458;29;20553;-61
2021/09/26 20:59:36;;;;;;;16.35;6.75;;;;;;;;;;4893346;29;20552;-61
2021/09/26 21:02:02;;;;;;;15.25;5.88;;;;;;;;;;4864000;29;20041;-62
2021/09/26 21:04:28;;;;;;;13.48;5.70;;;;;;;;;;4895643;29;20067;-61
2021/09/26 21:06:54;;;;;;;8.20;5.35;;;;;;;;;;4894495;29;20103;-61
2021/09/26 21:09:21;;;;;;;14.02;6.22;;;;;;;;;;4895400;29;20065;-62
2021/09/26 21:11:47;;;;;;;13.55;6.78;;;;;;;;;;4896067;29;20025;-62
2021/09/26 21:14:13;;;;;;;10.68;5.70;;;;;;;;;;4878780;29;20116;-62
2021/09/26 21:16:39;;;;;;;11.75;6.35;;;;;;;;;;4896157;29;20035;-62
2021/09/26 21:19:05;;;;;;;13.73;6.32;;;;;;;;;;4877137;29;20108;-61
2021/09/26 21:21:31;;;;;;;15.68;6.88;;;;;;;;;;4895582;29;20036;-62
2021/09/26 21:23:58;;;;;;;10.68;5.68;;;;;;;;;;4880149;29;20036;-62
2021/09/26 21:26:25;;;;;;;8.93;5.20;;;;;;;;;;4897989;29;20033;-62
2021/09/26 21:28:51;;;;;;;11.82;5.55;;;;;;;;;;4881386;29;20052;-63
2021/09/26 21:31:17;;;;;;;10.70;5.43;;;;;;;;;;4897406;29;20032;-63
2021/09/26 21:33:43;;;;;;;11.75;5.53;;;;;;;;;;4879600;29;20115;-62
2021/09/26 21:36:10;;;;;;;10.48;5.60;;;;;;;;;;4879497;29;20067;-62
2021/09/26 21:38:36;;;;;;;19.38;6.97;;;;;;;;;;4879453;29;20037;-62
2021/09/26 21:41:03;;;;;;;12.25;6.22;;;;;;;;;;4879591;29;20521;-63
2021/09/26 21:43:30;;;;;;;9.02;5.85;;;;;;;;;;4875499;29;20024;-62
2021/09/26 21:45:58;;;;;;;14.48;6.13;;;;;;;;;;4894969;29;20044;-61
2021/09/26 21:48:25;;;;;;;19.83;8.43;;;;;;;;;;4895861;29;20028;-61
2021/09/26 21:50:52;;;;;;;21.98;7.57;;;;;;;;;;4878110;29;20035;-61
2021/09/26 21:53:19;;;;;;;13.93;7.30;;;;;;;;;;4878774;29;20120;-61
2021/09/26 21:55:45;;;;;;;19.52;8.50;;;;;;;;;;4895654;29;20031;-59
2021/09/26 21:58:12;;;;;;;14.50;7.32;;;;;;;;;;4895124;29;20128;-62
2021/09/26 22:00:47;;;;;;;13.15;7.07;;;;;;;;;;4878405;29;20551;-62
2021/09/26 22:03:14;;;;;;;20.23;10.25;;;;;;;;;;4878448;29;20033;-62
2021/09/26 22:05:40;;;;;;;20.67;9.20;;;;;;;;;;4877894;29;20122;-61
2021/09/26 22:08:07;;;;;;;15.85;8.68;;;;;;;;;;4895093;29;20035;-62
2021/09/26 22:10:34;;;;;;;11.48;6.65;;;;;;;;;;4878887;29;20452;-62
2021/09/26 22:13:01;;;;;;;14.75;7.20;;;;;;;;;;4878308;29;20519;-62
2021/09/26 22:15:28;;;;;;;13.45;6.78;;;;;;;;;;4877739;29;20485;-61
2021/09/26 22:17:55;;;;;;;15.93;8.50;;;;;;;;;;4894753;29;20485;-61
2021/09/26 22:20:22;;;;;;;17.25;8.13;;;;;;;;;;4877166;29;20033;-61
2021/09/26 22:22:48;;;;;;;16.77;7.80;;;;;;;;;;4878288;29;20027;-62
2021/09/26 22:25:16;;;;;;;17.75;8.65;;;;;;;;;;4878396;29;20036;-62
2021/09/26 22:27:42;;;;;;;14.48;8.30;;;;;;;;;;4894650;29;20855;-61
2021/09/26 22:30:10;;;;;;;14.20;7.80;;;;;;;;;;4895587;29;20036;-62
2021/09/26 22:32:37;;;;;;;17.55;8.48;;;;;;;;;;4878760;29;20084;-61
2021/09/26 22:35:04;;;;;;;19.77;8.93;;;;;;;;;;4878312;29;20055;-62
2021/09/26 22:37:31;;;;;;;52.95;10.70;;;;;;;;;;4895900;29;20032;-62
2021/09/26 22:39:57;;;;;;;41.40;9.02;;;;;;;;;;4895968;29;20357;-62
2021/09/26 22:42:24;;;;;;;32.22;9.55;;;;;;;;;;4879075;29;20036;-62
2021/09/26 22:44:51;;;;;;;31.85;9.15;;;;;;;;;;4879077;29;20028;-62
2021/09/26 22:47:17;;;;;;;26.23;8.60;;;;;;;;;;4896048;29;20036;-62
2021/09/26 22:49:43;;;;;;;16.05;7.57;;;;;;;;;;4863627;29;20052;-63
2021/09/26 22:52:09;;;;;;;18.92;8.43;;;;;;;;;;4878830;29;20036;-61
2021/09/26 22:54:35;;;;;;;17.48;7.80;;;;;;;;;;4879158;29;20029;-61
2021/09/26 22:57:01;;;;;;;17.17;8.07;;;;;;;;;;4878971;29;20111;-61
2021/09/26 22:59:27;;;;;;;15.20;7.53;;;;;;;;;;4879011;29;20169;-61
2021/09/26 23:01:54;;;;;;;14.10;8.10;;;;;;;;;;4878934;29;20033;-61
2021/09/26 23:04:20;;;;;;;15.57;7.75;;;;;;;;;;4878826;29;20028;-62
2021/09/26 23:06:46;;;;;;;14.38;7.63;;;;;;;;;;4895864;29;20028;-63
2021/09/26 23:09:12;;;;;;;14.90;7.57;;;;;;;;;;4895951;29;20028;-62
2021/09/26 23:11:39;;;;;;;13.63;6.72;;;;;;;;;;4879079;29;20201;-62
2021/09/26 23:14:05;;;;;;;15.25;7.10;;;;;;;;;;4879116;29;20496;-62
2021/09/26 23:16:32;;;;;;;14.80;7.25;;;;;;;;;;4895582;29;20037;-61
2021/09/26 23:18:58;;;;;;;13.07;6.90;;;;;;;;;;4895279;29;20088;-61
2021/09/26 23:21:24;;;;;;;13.80;6.80;;;;;;;;;;4895751;29;20394;-62
2021/09/26 23:23:50;;;;;;;14.80;6.90;;;;;;;;;;4895969;29;20039;-61
2021/09/26 23:26:18;;;;;;;14.93;6.90;;;;;;;;;;4895674;29;20036;-62
2021/09/26 23:28:45;;;;;;;14.45;7.28;;;;;;;;;;4895874;29;20109;-61
2021/09/26 23:31:12;;;;;;;13.77;7.65;;;;;;;;;;4896188;29;20116;-61
2021/09/26 23:33:38;;;;;;;14.35;6.85;;;;;;;;;;4882236;29;20032;-62
2021/09/26 23:36:05;;;;;;;11.10;6.10;;;;;;;;;;4899149;29;20044;-61
2021/09/26 23:38:31;;;;;;;10.85;5.95;;;;;;;;;;4882190;29;20429;-61
2021/09/26 23:40:59;;;;;;;13.80;6.70;;;;;;;;;;4899064;29;20444;-61
2021/09/26 23:43:28;;;;;;;12.52;6.25;;;;;;;;;;4898887;29;20072;-61
2021/09/26 23:45:54;;;;;;;10.82;6.10;;;;;;;;;;4898807;29;20029;-61
2021/09/26 23:48:21;;;;;;;10.43;5.80;;;;;;;;;;4898977;29;20043;-61
2021/09/26 23:50:48;;;;;;;11.43;4.68;;;;;;;;;;4898940;29;20381;-61
2021/09/26 23:53:14;;;;;;;8.02;4.43;;;;;;;;;;4881935;29;20116;-61
2021/09/26 23:55:40;;;;;;;9.05;5.32;;;;;;;;;;4881812;29;20029;-61
2021/09/26 23:58:07;;;;;;;12.70;5.40;;;;;;;;;;4898909;29;20024;-61
